TFM - Tactical Decision Aid
ID: Runway Winds: CIG/VIS Threshold:

KJVL - Janesville/S Wiscons, WI, US

Updated at: 0434 UTC 30 Jun 2022
Latest TAF at: 0308 UTC 30 Jun 2022

TAF Board

Time0415Z 30/05Z 30/06Z 30/07Z 30/08Z 30/09Z 30/10Z 30/11Z 30/12Z 30/13Z 30/14Z 30/15Z 30/16Z 30/17Z>>
Type OBS PRVL PRVL PRVL PRVL PRVL PRVL PRVL PRVL PRVL PRVL PRVL PRVL PRVL
VIS 10 >6 >6 >6 >6 >6 >6 >6 >6 >6 >6 >6 >6 >6
CIG -- -- -- -- -- -- -- -- -- -- -- -- -- --
Cover CLR SKC SKC SKC SKC SKC SKC SKC SKC SKC FEW FEW FEW FEW
FltCat VFR VFR VFR VFR VFR VFR VFR VFR VFR VFR VFR VFR VFR VFR
WX -- -- -- -- -- -- -- -- -- -- -- -- -- --
WDir 130 160 160 190 190 190 190 190 190 190 210 210 210 210
WSpd 3 7 7 7 7 7 7 7 7 7 12 12 12 12
WGst -- -- -- -- -- -- -- -- -- -- 24 24 24 24
WSHgt -- -- -- -- -- -- -- -- -- -- -- -- -- --
WSDir -- -- -- -- -- -- -- -- -- -- -- -- -- --
WSSpd -- -- -- -- -- -- -- -- -- -- -- -- -- --
R04/22
XWnd -3 -6 -6 -4 -4 -4 -4 -4 -4 -4 -2 -2 -2 -2
XGst -- -- -- -- -- -- -- -- -- -- -5 -5 -5 -5
HWnd 0 -3 -3 -6 -6 -6 -6 -6 -6 -6 -12 -12 -12 -12
HGst -- -- -- -- -- -- -- -- -- -- -23 -23 -23 -23
R14/32
XWnd 0 -3 -3 -6 -6 -6 -6 -6 -6 -6 -12 -12 -12 -12
XGst -- -- -- -- -- -- -- -- -- -- -23 -23 -23 -23
HWnd 3 6 6 4 4 4 4 4 4 4 3 3 3 3
HGst -- -- -- -- -- -- -- -- -- -- 6 6 6 6
R18/36
XWnd 2 2 2 -1 -1 -1 -1 -1 -1 -1 -6 -6 -6 -6
XGst -- -- -- -- -- -- -- -- -- -- -12 -12 -12 -12
HWnd 2 7 7 7 7 7 7 7 7 7 10 10 10 10
HGst -- -- -- -- -- -- -- -- -- -- 21 21 21 21

TDA Impact Legend

  None Marginal Slight Moderate High
Visibility (sm) >5 2.9≤X≤5 0.9≤X<2.9 <0.9
Ceiling (100 ft) >30 9.9≤X≤30 4.9≤X<9.9 <4.9
Wind Speed (kt) <15 15≤X<25 25≤X<30 ≥30
Wind Gust (kt) <15 15≤X<25 25≤X<35 ≥35
Weather No Wx Reported VCTS -TS,-FZRA TS,FZRA +TS,+FZRA
TAF
KJVL 300308Z 3003/3024 16007KT P6SM SKC
  FM300700 19007KT P6SM SKC
  FM301400 21012G24KT P6SM FEW240


METAR
KJVL 300415Z AUTO 13003KT 10SM CLR 22/16 A3008 RMK AO2
KJVL 300355Z AUTO 14004KT 10SM CLR 24/16 A3009 RMK AO2
KJVL 300335Z AUTO 16006KT 10SM CLR 25/15 A3009 RMK AO2
KJVL 300315Z AUTO 15006KT 10SM CLR 23/15 A3009 RMK AO2
KJVL 300255Z AUTO 14005KT 10SM CLR 23/15 A3009 RMK AO2
KJVL 300145Z 16004KT 10SM CLR 26/16 A3009

Radar Display
Forecast Discussion